Flight Track Log - Related Links

Times and Time Zones

All times are in EDT time to prevent confusion due to time zone crossing. See the AAL2474 flight status page for this flight to view local times or setup timezone preferences in your user account.

Time Position Orientation Groundspeed Altitude Reporting Facility
EDT Latitude Longitude Course Direction KTS MPH feet Rate Location/Type
Thu 08:26:26 PM 41.9940 -87.8664 26° Northeast 166 191 2,100  Level FlightAware ADS-B
Thu 08:26:34 PM 41.9993 -87.8646 North 184 212 2,300 857 Climbing FlightAware ADS-B
Thu 08:26:40 PM 42.0033 -87.8644 358° North 192 221 2,300 818 Level FlightAware ADS-B
Thu 08:26:56 PM 42.0206 -87.8660 355° North 219 252 2,600 1,500 Climbing FlightAware ADS-B
Thu 08:27:16 PM 42.0405 -87.8680 357° North 248 285 3,200 2,341 Climbing FlightAware ADS-B
Thu 08:27:37 PM 42.0679 -87.8696 358° North 255 293 4,200 2,400 Climbing FlightAware ADS-B
Thu 08:27:56 PM 42.0905 -87.8704 359° North 260 299 4,800 1,846 Climbing FlightAware ADS-B
Thu 08:28:16 PM 42.1142 -87.8711 359° North 259 298 5,400 2,634 Climbing FlightAware ADS-B
Thu 08:28:37 PM 42.1393 -87.8719 359° North 255 293 6,600 3,366 Climbing FlightAware ADS-B
Thu 08:28:57 PM 42.1625 -87.8720 North 256 295 7,700 3,188 Climbing FlightAware ADS-B
Thu 08:29:09 PM 42.1781 -87.8700 10° North 263 303 8,300 2,824 Climbing FlightAware ADS-B
Thu 08:29:14 PM 42.1788 -87.8697 15° North 266 306 8,500 2,286 Climbing FlightAware ADS-B
Thu 08:29:30 PM 42.2025 -87.8588 21° North 274 315 9,100 2,333 Climbing FlightAware ADS-B
Thu 08:29:50 PM 42.2262 -87.8464 21° North 285 328 9,900 2,400 Climbing FlightAware ADS-B
Thu 08:30:00 PM 42.2395 -87.8407 15° North 286 329 10,300 2,667 Climbing FlightAware ADS-B
Thu 08:30:17 PM 42.2565 -87.8378 North 287 330 11,100 2,082 Climbing FlightAware ADS-B
Thu 08:30:49 PM 42.3053 -87.8360 North 314 361 12,000 1,457 Climbing FlightAware ADS-B
Thu 08:31:27 PM 42.3651 -87.8338 North 359 413 12,800 1,579 Climbing FlightAware ADS-B
Thu 08:31:46 PM 42.3977 -87.8273 13° North 375 432 13,500 2,327 Climbing FlightAware ADS-B
Thu 08:32:16 PM 42.4493 -87.8053 18° North 393 452 14,700 2,438 Climbing FlightAware ADS-B
Thu 08:32:50 PM 42.5080 -87.7787 19° North 404 465 16,100 2,400 Climbing FlightAware ADS-B
Thu 08:33:21 PM 42.5571 -87.7563 19° North 413 475 17,300 2,451 Climbing FlightAware ADS-B
Thu 08:34:01 PM 42.6336 -87.7218 18° North 425 489 19,000 2,400 Climbing FlightAware ADS-B
Thu 08:34:31 PM 42.6932 -87.6949 18° North 434 499 20,100 2,300 Climbing FlightAware ADS-B
Thu 08:35:01 PM 42.7454 -87.6712 19° North 442 509 21,300 2,100 Climbing FlightAware ADS-B
Thu 08:35:31 PM 42.8041 -87.6255 43° Northeast 452 520 22,200 1,800 Climbing FlightAware ADS-B
Thu 08:35:41 PM 42.8161 -87.6063 54° Northeast 453 521 22,500 1,800 Climbing FlightAware ADS-B
Thu 08:36:01 PM 42.8346 -87.5561 73° East 450 518 23,100 1,800 Climbing FlightAware ADS-B
Thu 08:36:41 PM 42.8482 -87.4416 82° East 454 522 24,300 1,650 Climbing FlightAware ADS-B
Thu 08:37:21 PM 42.8594 -87.3369 82° East 464 534 25,300 1,575 Climbing FlightAware ADS-B
Thu 08:38:01 PM 42.8725 -87.2135 82° East 469 540 26,400 1,575 Climbing FlightAware ADS-B
Thu 08:38:41 PM 42.8852 -87.0927 82° East 476 548 27,400 1,543 Climbing FlightAware ADS-B
Thu 08:39:11 PM 42.8944 -87.0037 82° East 480 552 28,200 1,629 Climbing FlightAware ADS-B
Thu 08:39:51 PM 42.9067 -86.8856 82° East 479 551 29,300 1,425 Climbing FlightAware ADS-B
Thu 08:40:31 PM 42.9190 -86.7654 82° East 482 555 30,100 1,421 Climbing FlightAware ADS-B
Thu 08:41:07 PM 42.9300 -86.6573 82° East 481 554 31,100 731 Climbing FlightAware ADS-B
Thu 08:43:07 PM 42.9650 -86.3021 83° East 468 539 32,000 325 Climbing FlightAware ADS-B
Thu 08:43:53 PM 42.9750 -86.1992 83° East 468 539 32,000 333 Level Cleveland Center
Thu 08:44:55 PM 42.9922 -86.0150 83° East 467 537 32,600 1,161 Climbing Cleveland Center
Thu 08:45:57 PM 43.0086 -85.8392 83° East 468 539 34,400 1,548 Climbing Cleveland Center
Thu 08:46:59 PM 43.0114 -85.6653 89° East 431 496 35,800 919 Climbing Cleveland Center
Thu 08:48:01 PM 42.9947 -85.5067 98° East 419 482 36,300 677 Climbing Cleveland Center
Thu 08:49:03 PM 43.0056 -85.3006 86° East 466 536 37,200 379 Climbing Cleveland Center
Thu 08:55:08 PM 43.1162 -84.2277 82° East 465 535 39,000 273 Climbing FlightAware ADS-B (CYYZ)
Thu 08:55:38 PM 43.1234 -84.1548 82° East 464 534 39,000  Level FlightAware ADS-B (CYYZ)
Thu 08:56:08 PM 43.1334 -84.0542 82° East 463 533 39,000  Level FlightAware ADS-B (CYYZ)
Thu 08:56:39 PM 43.1423 -83.9656 82° East 463 533 39,000  Level FlightAware ADS-B (CYYZ)
Thu 08:57:08 PM 43.1508 -83.8794 82° East 462 532 39,000  Level FlightAware ADS-B (CYYZ)
Thu 08:57:38 PM 43.1584 -83.8018 82° East 460 529 39,000  Level FlightAware ADS-B (CYYZ)
Thu 08:58:08 PM 43.1673 -83.7061 82° East 459 528 39,000  Level FlightAware ADS-B (CYYZ)
Thu 08:58:38 PM 43.1710 -83.6666 82° East 459 528 39,000  Level FlightAware ADS-B (CYYZ)
Thu 08:59:09 PM 43.1834 -83.5329 82° East 460 529 39,000  Level FlightAware ADS-B (CYYZ)
Thu 08:59:39 PM 43.1913 -83.4471 82° East 462 532 39,000  Level FlightAware ADS-B (CYYZ)
Thu 09:00:08 PM 43.1992 -83.3609 82° East 462 532 39,000  Level FlightAware ADS-B (CYYZ)
Thu 09:00:38 PM 43.2073 -83.2726 83° East 463 533 39,000  Level FlightAware ADS-B (CYYZ)
Thu 09:00:51 PM 43.2106 -83.2349 83° East 463 533 39,000  Level FlightAware ADS-B (EPLB / LUZ)
Thu 09:01:07 PM 43.2138 -83.1983 83° East 463 533 39,000  Level FlightAware ADS-B (CYYZ)
Thu 09:01:39 PM 43.2229 -83.0972 82° East 464 534 39,000  Level FlightAware ADS-B (CYYZ)
Thu 09:02:08 PM 43.2307 -83.0097 83° East 465 535 39,000  Level FlightAware ADS-B (CYYZ)
Thu 09:02:38 PM 43.2383 -82.9227 83° East 465 535 39,000  Level FlightAware ADS-B (CYYZ)
Thu 09:03:08 PM 43.2456 -82.8383 83° East 467 537 39,000  Level FlightAware ADS-B (CYYZ)
Thu 09:03:39 PM 43.2534 -82.7475 83° East 469 540 39,000  Level FlightAware ADS-B (CYYZ)
Thu 09:04:00 PM 43.2607 -82.6843 79° East 480 552 39,000  Level FlightAware ADS-B (EPLB / LUZ)
Thu 09:04:29 PM 43.2733 -82.5971 78° East 482 555 39,000  Level FlightAware ADS-B (CYYZ)
Thu 09:04:59 PM 43.2846 -82.5184 78° East 484 557 39,000  Level FlightAware ADS-B (CYYZ)
Thu 09:05:28 PM 43.2986 -82.4200 78° East 485 558 39,000  Level FlightAware ADS-B (CYYZ)
Thu 09:05:59 PM 43.3121 -82.3264 78° East 487 560 39,000  Level FlightAware ADS-B (CYYZ)
Thu 09:06:29 PM 43.3237 -82.2442 79° East 485 558 39,000  Level FlightAware ADS-B (CYYZ)
Thu 09:06:35 PM 43.3273 -82.2183 79° East 486 559 39,000  Level FlightAware ADS-B (EPLB / LUZ)
Thu 09:06:59 PM 43.3376 -82.1445 79° East 486 559 39,000  Level FlightAware ADS-B (CYYZ)
Thu 09:07:28 PM 43.3493 -82.0607 79° East 486 559 39,000  Level FlightAware ADS-B (CYYZ)
Thu 09:07:59 PM 43.3626 -81.9629 79° East 486 559 39,000  Level FlightAware ADS-B (CYYZ)
Thu 09:08:29 PM 43.3743 -81.8768 79° East 486 559 39,000  Level FlightAware ADS-B (CYYZ)
Thu 09:08:45 PM 43.3816 -81.8231 80° East 487 560 39,000  Level FlightAware ADS-B (CYKF)
Thu 09:08:58 PM 43.3871 -81.7827 79° East 486 559 39,000  Level FlightAware ADS-B (CYYZ)
Thu 09:09:28 PM 43.3992 -81.6937 79° East 488 562 39,000  Level FlightAware ADS-B (CYYZ)
Thu 09:09:59 PM 43.4120 -81.5985 79° East 488 562 39,000  Level FlightAware ADS-B (CYYZ)
Thu 09:10:16 PM 43.4183 -81.5513 80° East 489 563 39,000  Level FlightAware ADS-B (EPLB / LUZ)
Thu 09:10:28 PM 43.4236 -81.5113 79° East 488 562 39,000  Level FlightAware ADS-B (CYYZ)
Thu 09:10:55 PM 43.4337 -81.4358 80° East 491 565 39,000  Level FlightAware ADS-B (EPLB / LUZ)
Thu 09:10:59 PM 43.4362 -81.4167 79° East 491 565 39,000  Level FlightAware ADS-B (CYYZ)
Thu 09:11:28 PM 43.4482 -81.3263 79° East 493 567 39,000  Level FlightAware ADS-B (CYYZ)
Thu 09:11:40 PM 43.4531 -81.2889 80° East 495 570 39,000  Level FlightAware ADS-B (EPLB / LUZ)
Thu 09:11:58 PM 43.4607 -81.2310 79° East 496 571 39,000  Level FlightAware ADS-B (CYYZ)
Thu 09:12:28 PM 43.4727 -81.1390 79° East 497 572 39,000  Level FlightAware ADS-B (CYYZ)
Thu 09:12:37 PM 43.4512 -81.3031 80° East 497 572 39,000  Level FlightAware ADS-B (CYKF)
Thu 09:12:59 PM 43.4849 -81.0450 80° East 495 570 39,000  Level FlightAware ADS-B (CYYZ)
Thu 09:13:28 PM 43.4965 -80.9539 79° East 492 566 39,000  Level FlightAware ADS-B (CYYZ)
Thu 09:13:59 PM 43.5086 -80.8594 80° East 488 562 39,000  Level FlightAware ADS-B (CYYZ)
Thu 09:14:04 PM 43.5065 -80.8765 80° East 487 560 39,000  Level FlightAware ADS-B (EPLB / LUZ)
Thu 09:14:28 PM 43.5199 -80.7687 80° East 477 549 39,000  Level FlightAware ADS-B (CYYZ)
Thu 09:14:41 PM 43.5242 -80.7339 80° East 476 548 39,000  Level FlightAware ADS-B (ETHL)
Thu 09:15:09 PM 43.5351 -80.6496 79° East 477 549 39,000  Level FlightAware ADS-B (CYYZ)
Thu 09:15:32 PM 43.5439 -80.5814 80° East 477 549 39,000  Level FlightAware ADS-B (EPLB / LUZ)
Thu 09:15:39 PM 43.5467 -80.5599 80° East 477 549 39,000  Level FlightAware ADS-B (CYYZ)
Thu 09:16:05 PM 43.5558 -80.4874 80° East 477 549 39,000  Level FlightAware ADS-B (ETHL)
Thu 09:16:09 PM 43.5579 -80.4703 80° East 477 549 39,000  Level FlightAware ADS-B (CYYZ)
Thu 09:16:35 PM 43.5677 -80.3912 81° East 479 551 39,000  Level FlightAware ADS-B (ETHL)
Thu 09:16:39 PM 43.5690 -80.3807 80° East 478 550 39,000  Level FlightAware ADS-B (CYYZ)
Thu 09:17:06 PM 43.5787 -80.3006 81° East 479 551 39,000  Level FlightAware ADS-B (ETHL)
Thu 09:17:08 PM 43.5798 -80.2913 80° East 479 551 39,000  Level FlightAware ADS-B (CYYZ)
Thu 09:17:39 PM 43.5905 -80.2031 80° East 480 552 39,000  Level FlightAware ADS-B (CYYZ)
Thu 09:17:41 PM 43.5917 -80.1935 81° East 480 552 39,000  Level FlightAware ADS-B (EPLB / LUZ)
Thu 09:18:09 PM 43.6018 -80.1094 80° East 481 554 39,000  Level FlightAware ADS-B (CYYZ)
Thu 09:18:25 PM 43.6074 -80.0617 81° East 481 554 39,000  Level FlightAware ADS-B (ETHL)
Thu 09:18:39 PM 43.6124 -80.0199 80° East 482 555 39,000  Level FlightAware ADS-B (CYYZ)
Thu 09:18:55 PM 43.6183 -79.9694 81° East 482 555 39,000  Level FlightAware ADS-B (ETHL)
Thu 09:19:08 PM 43.6225 -79.9345 80° East 482 555 39,000  Level FlightAware ADS-B (CYYZ)
Thu 09:19:25 PM 43.6290 -79.8805 81° East 483 556 39,000  Level FlightAware ADS-B (EPLB / LUZ)
Thu 09:19:39 PM 43.6335 -79.8417 80° East 483 556 39,000  Level FlightAware ADS-B (CYYZ)
Thu 09:19:56 PM 43.6400 -79.7867 81° East 483 556 39,000  Level FlightAware ADS-B (ETHL)
Thu 09:20:09 PM 43.6445 -79.7487 80° East 483 556 39,000  Level FlightAware ADS-B (CYYZ)
Thu 09:20:26 PM 43.6510 -79.6937 81° East 483 556 39,000  Level FlightAware ADS-B (ETHL)
Thu 09:20:38 PM 43.6552 -79.6575 80° East 484 557 39,000  Level FlightAware ADS-B (CYYZ)
Thu 09:21:05 PM 43.6605 -79.5749 87° East 473 544 39,000  Level FlightAware ADS-B (ETHL)
Thu 09:21:28 PM 43.6631 -79.5079 86° East 472 543 39,000  Level FlightAware ADS-B (CYYZ)
Thu 09:21:46 PM 43.6652 -79.4522 87° East 474 545 39,000  Level FlightAware ADS-B (ETHL)
Thu 09:21:59 PM 43.6665 -79.4161 87° East 473 544 39,000  Level FlightAware ADS-B (CYYZ)
Thu 09:22:18 PM 43.6685 -79.3612 87° East 475 547 39,000  Level FlightAware ADS-B (EPLB / LUZ)
Thu 09:22:28 PM 43.6698 -79.3253 87° East 475 547 39,000  Level FlightAware ADS-B (CYYZ)
Thu 09:22:55 PM 43.6724 -79.2518 87° East 477 549 39,000  Level FlightAware ADS-B (ETHL)
Thu 09:22:58 PM 43.6730 -79.2339 87° East 476 548 39,000  Level FlightAware ADS-B (CYYZ)
Thu 09:23:29 PM 43.6762 -79.1428 87° East 478 550 39,000  Level FlightAware ADS-B (CYYZ)
Thu 09:23:30 PM 43.6747 -79.1838 87° East 479 551 39,000  Level FlightAware ADS-B (ETHL)
Thu 09:23:59 PM 43.6794 -79.0514 87° East 479 551 39,000  Level FlightAware ADS-B (CYYZ)
Thu 09:24:06 PM 43.6798 -79.0374 87° East 480 552 39,000  Level FlightAware ADS-B (EPLB / LUZ)
Thu 09:24:29 PM 43.6825 -78.9586 87° East 480 552 39,000  Level FlightAware ADS-B (CYYZ)
Thu 09:24:45 PM 43.6841 -78.9121 87° East 481 554 39,000  Level FlightAware ADS-B (EPLB / LUZ)
Thu 09:24:58 PM 43.6855 -78.8699 87° East 481 554 39,000  Level FlightAware ADS-B (CYYZ)
Thu 09:25:29 PM 43.6885 -78.7746 87° East 481 554 39,000  Level FlightAware ADS-B (CYYZ)
Thu 09:25:59 PM 43.6913 -78.6841 87° East 482 555 39,000  Level FlightAware ADS-B (CYYZ)
Thu 09:26:29 PM 43.6939 -78.5906 87° East 483 556 39,000  Level FlightAware ADS-B (CYYZ)
Thu 09:26:33 PM 43.6943 -78.5772 88° East 483 556 39,000  Level FlightAware ADS-B (EPLB / LUZ)
Thu 09:26:59 PM 43.6964 -78.4999 87° East 483 556 39,000  Level FlightAware ADS-B (CYYZ)
Thu 09:27:28 PM 43.6989 -78.4074 87° East 480 552 39,000  Level FlightAware ADS-B (CYYZ)
Thu 09:27:59 PM 43.7014 -78.3149 87° East 480 552 39,000  Level FlightAware ADS-B (CYYZ)
Thu 09:28:28 PM 43.7038 -78.2234 87° East 480 552 39,000  Level FlightAware ADS-B (CYYZ)
Thu 09:28:58 PM 43.7059 -78.1324 89° East 479 551 39,000  Level FlightAware ADS-B (CYYZ)
Thu 09:29:29 PM 43.7054 -78.0415 90° East 474 545 39,000  Level FlightAware ADS-B (CYYZ)
Thu 09:29:59 PM 43.7042 -77.9500 90° East 474 545 39,000  Level FlightAware ADS-B (CYYZ)
Thu 09:30:29 PM 43.7032 -77.8600 90° East 474 545 39,000  Level FlightAware ADS-B (CYYZ)
Thu 09:30:58 PM 43.7024 -77.7696 90° East 474 545 39,000  Level FlightAware ADS-B (CYYZ)
Thu 09:31:28 PM 43.7018 -77.6811 90° East 472 543 39,000  Level FlightAware ADS-B (CYYZ)
Thu 09:31:58 PM 43.7012 -77.5893 90° East 469 540 39,000  Level FlightAware ADS-B (CYYZ)
Thu 09:32:28 PM 43.7006 -77.4999 90° East 467 537 39,000  Level FlightAware ADS-B (CYYZ)
Thu 09:32:31 PM 43.7006 -77.5029 91° East 467 537 39,000  Level FlightAware ADS-B
Thu 09:32:53 PM 43.7000 -77.4260 90° East 467 537 39,000  Level FlightAware ADS-B
Thu 09:32:59 PM 43.6997 -77.4099 90° East 466 536 39,000  Level FlightAware ADS-B (CYYZ)
Thu 09:33:08 PM 43.6995 -77.3840 91° East 466 536 39,000  Level FlightAware ADS-B
Thu 09:33:28 PM 43.6988 -77.3218 90° East 465 535 39,000  Level FlightAware ADS-B (CYYZ)
Thu 09:33:32 PM 43.6990 -77.3110 90° East 466 536 39,000  Level FlightAware ADS-B
Thu 09:33:41 PM 43.6986 -77.3064 91° East 465 535 39,000  Level FlightAware ADS-B
Thu 09:33:58 PM 43.6979 -77.2418 90° East 465 535 39,000  Level FlightAware ADS-B (CYYZ)
Thu 09:34:15 PM 43.6972 -77.1820 91° East 465 535 39,000  Level FlightAware ADS-B
Thu 09:34:26 PM 43.6970 -77.1510 91° East 466 536 39,000  Level FlightAware ADS-B
Thu 09:34:28 PM 43.6967 -77.1464 91° East 465 535 39,000  Level FlightAware ADS-B (CYYZ)
Thu 09:34:45 PM 43.6960 -77.0946 91° East 465 535 39,000  Level FlightAware ADS-B
Thu 09:34:58 PM 43.6955 -77.0571 91° East 465 535 39,000  Level FlightAware ADS-B (CYYZ)
Thu 09:35:01 PM 43.6950 -77.0460 91° East 466 536 39,000  Level FlightAware ADS-B
Thu 09:35:27 PM 43.6943 -76.9726 91° East 466 536 39,000  Level FlightAware ADS-B
Thu 09:35:29 PM 43.6943 -76.9696 91° East 466 536 39,000  Level FlightAware ADS-B (CYYZ)
Thu 09:35:32 PM 43.6940 -76.9560 91° East 467 537 39,000  Level FlightAware ADS-B
Thu 09:35:59 PM 43.6928 -76.8758 91° East 467 537 39,000  Level FlightAware ADS-B (CYYZ)
Thu 09:36:06 PM 43.6927 -76.8695 91° East 467 537 39,000  Level FlightAware ADS-B
Thu 09:36:08 PM 43.6920 -76.8490 91° East 468 539 39,000  Level FlightAware ADS-B
Thu 09:36:28 PM 43.6914 -76.7891 91° East 467 537 39,000  Level FlightAware ADS-B (CYYZ)
Thu 09:36:39 PM 43.6910 -76.7580 91° East 468 539 39,000  Level FlightAware ADS-B
Thu 09:36:42 PM 43.6907 -76.7475 91° East 467 537 39,000  Level FlightAware ADS-B
Thu 09:36:59 PM 43.6899 -76.6978 91° East 468 539 39,000  Level FlightAware ADS-B (CYYZ)
Thu 09:37:08 PM 43.6890 -76.6700 91° East 470 541 39,000  Level FlightAware ADS-B
Thu 09:37:21 PM 43.6888 -76.6303 91° East 470 541 39,000  Level FlightAware ADS-B
Thu 09:37:29 PM 43.6885 -76.6132 91° East 471 542 39,000  Level FlightAware ADS-B (CYYZ)
Thu 09:37:44 PM 43.6880 -76.5610 91° East 473 544 39,000  Level FlightAware ADS-B
Thu 09:37:55 PM 43.6870 -76.5293 92° East 473 544 39,000  Level FlightAware ADS-B
Thu 09:37:58 PM 43.6868 -76.5191 91° East 473 544 39,000  Level FlightAware ADS-B (CYYZ)
Thu 09:38:20 PM 43.6860 -76.4520 91° East 474 545 39,000  Level FlightAware ADS-B
Thu 09:38:25 PM 43.6853 -76.4389 92° East 473 544 39,000  Level FlightAware ADS-B
Thu 09:38:28 PM 43.6852 -76.4332 91° East 473 544 39,000  Level FlightAware ADS-B (CYYZ)
Thu 09:38:57 PM 43.6830 -76.3430 91° East 475 547 39,000  Level FlightAware ADS-B
Thu 09:38:58 PM 43.6833 -76.3370 91° East 474 545 39,000  Level FlightAware ADS-B (CYYZ)
Thu 09:39:08 PM 43.6828 -76.3137 92° East 475 547 39,000  Level FlightAware ADS-B
Thu 09:39:26 PM 43.6820 -76.2540 91° East 477 549 39,000  Level FlightAware ADS-B
Thu 09:39:29 PM 43.6815 -76.2458 91° East 476 548 39,000  Level FlightAware ADS-B (CYYZ)
Thu 09:39:43 PM 43.6806 -76.2028 92° East 476 548 39,000  Level FlightAware ADS-B
Thu 09:39:56 PM 43.6800 -76.1610 91° East 478 550 39,000  Level FlightAware ADS-B
Thu 09:39:58 PM 43.6796 -76.1582 91° East 477 549 39,000  Level FlightAware ADS-B (CYYZ)
Thu 09:40:29 PM 43.6778 -76.0757 91° East 477 549 39,000  Level FlightAware ADS-B (CYYZ)
Thu 09:40:31 PM 43.6774 -76.0568 92° East 477 549 39,000  Level FlightAware ADS-B
Thu 09:40:32 PM 43.6770 -76.0540 91° East 478 550 39,000  Level FlightAware ADS-B
Thu 09:40:59 PM 43.6755 -75.9746 91° East 476 548 39,000  Level FlightAware ADS-B (CYYZ)
Thu 09:41:01 PM 43.6754 -75.9661 92° East 476 548 39,000  Level FlightAware ADS-B
Thu 09:41:08 PM 43.6750 -75.9440 91° East 477 549 39,000  Level FlightAware ADS-B
Thu 09:41:28 PM 43.6735 -75.8856 91° East 475 547 39,000  Level FlightAware ADS-B (CYYZ)
Thu 09:41:34 PM 43.6730 -75.8660 92° East 475 547 39,000  Level FlightAware ADS-B
Thu 09:41:44 PM 43.6720 -75.8370 92° East 476 548 39,000  Level FlightAware ADS-B
Thu 09:41:59 PM 43.6714 -75.8000 91° East 474 545 39,000  Level FlightAware ADS-B (CYYZ)
Thu 09:42:13 PM 43.6702 -75.7521 92° East 473 544 39,000  Level FlightAware ADS-B
Thu 09:42:14 PM 43.6700 -75.7480 92° East 474 545 39,000  Level FlightAware ADS-B
Thu 09:42:28 PM 43.6693 -75.7154 92° East 473 544 39,000  Level FlightAware ADS-B (CYYZ)
Thu 09:42:44 PM 43.6680 -75.6570 92° East 473 544 39,000  Level FlightAware ADS-B
Thu 09:42:55 PM 43.6670 -75.6258 92° East 472 543 39,000  Level FlightAware ADS-B
Thu 09:42:58 PM 43.6669 -75.6210 92° East 472 543 39,000  Level FlightAware ADS-B (CYYZ)
Thu 09:43:20 PM 43.6650 -75.5510 92° East 472 543 39,000  Level FlightAware ADS-B
Thu 09:43:28 PM 43.6642 -75.5213 92° East 471 542 39,000  Level FlightAware ADS-B (CYYZ)
Thu 09:43:35 PM 43.6638 -75.5066 92° East 471 542 39,000  Level FlightAware ADS-B
Thu 09:43:50 PM 43.6620 -75.4570 92° East 473 544 39,000  Level FlightAware ADS-B
Thu 09:43:58 PM 43.6623 -75.4538 92° East 472 543 39,000  Level FlightAware ADS-B (CYYZ)
Thu 09:44:08 PM 43.6609 -75.4025 92° East 471 542 39,000  Level FlightAware ADS-B
Thu 09:44:20 PM 43.6600 -75.3680 92° East 472 543 39,000  Level FlightAware ADS-B
Thu 09:44:48 PM 43.6574 -75.2830 92° East 470 541 39,000  Level FlightAware ADS-B
Thu 09:44:56 PM 43.6570 -75.2580 92° East 471 542 39,000  Level FlightAware ADS-B
Thu 09:45:26 PM 43.6540 -75.1680 92° East 470 541 39,000  Level FlightAware ADS-B
Thu 09:45:30 PM 43.6538 -75.1618 92° East 469 540 39,000  Level FlightAware ADS-B
Thu 09:45:56 PM 43.6510 -75.0810 92° East 470 541 39,000  Level FlightAware ADS-B
Thu 09:46:00 PM 43.6511 -75.0716 92° East 469 540 39,000  Level FlightAware ADS-B
Thu 09:46:33 PM 43.6480 -74.9700 92° East 469 540 39,000  Level FlightAware ADS-B
Thu 09:46:44 PM 43.6468 -74.9347 93° East 469 540 39,000  Level FlightAware ADS-B
Thu 09:47:03 PM 43.6450 -74.8810 92° East 468 539 39,000  Level FlightAware ADS-B
Thu 09:47:15 PM 43.6438 -74.8452 93° East 468 539 39,000  Level FlightAware ADS-B
Thu 09:47:29 PM 43.6420 -74.8020 92° East 468 539 39,000  Level FlightAware ADS-B
Thu 09:47:57 PM 43.6396 -74.7181 93° East 468 539 39,000  Level FlightAware ADS-B
Thu 09:48:08 PM 43.6380 -74.6860 92° East 468 539 39,000  Level FlightAware ADS-B
Thu 09:48:28 PM 43.6365 -74.6280 93° East 469 540 39,000  Level FlightAware ADS-B
Thu 09:48:38 PM 43.6360 -74.5990 92° East 469 540 39,000  Level FlightAware ADS-B
Thu 09:49:08 PM 43.6320 -74.5070 92° East 471 542 39,000  Level FlightAware ADS-B
Thu 09:49:10 PM 43.6320 -74.5027 93° East 471 542 39,000  Level FlightAware ADS-B
Thu 09:49:50 PM 43.6277 -74.3825 93° East 472 543 39,000  Level FlightAware ADS-B
Thu 09:50:11 PM 43.6250 -74.3210 93° East 473 544 39,000  Level FlightAware ADS-B
Thu 09:50:23 PM 43.6241 -74.2858 93° East 474 545 39,000  Level FlightAware ADS-B
Thu 09:50:41 PM 43.6220 -74.2300 93° East 475 547 39,000  Level FlightAware ADS-B
Thu 09:50:53 PM 43.6205 -74.1920 93° East 475 547 39,000  Level FlightAware ADS-B
Thu 09:51:28 PM 43.6160 -74.0870 93° East 475 547 39,000  Level FlightAware ADS-B
Thu 09:51:36 PM 43.6154 -74.0652 93° East 475 547 39,000  Level FlightAware ADS-B
Thu 09:51:59 PM 43.6130 -73.9950 93° East 472 543 39,000  Level FlightAware ADS-B
Thu 09:52:06 PM 43.6117 -73.9718 93° East 469 540 39,000  Level FlightAware ADS-B
Thu 09:52:34 PM 43.6080 -73.8900 93° East 460 529 39,000  Level FlightAware ADS-B
Thu 09:52:53 PM 43.6061 -73.8357 93° East 457 526 39,000  Level FlightAware ADS-B
Thu 09:53:03 PM 43.6050 -73.8090 93° East 456 525 39,000  Level FlightAware ADS-B
Thu 09:53:37 PM 43.6010 -73.7100 93° East 454 522 39,000  Level FlightAware ADS-B
Thu 09:53:41 PM 43.6004 -73.7009 93° East 454 522 39,000  Level FlightAware ADS-B
Thu 09:54:27 PM 43.5940 -73.5640 93° East 453 521 39,000  Level FlightAware ADS-B
Thu 09:54:41 PM 43.5926 -73.5238 93° East 453 521 39,000  Level FlightAware ADS-B
Thu 09:55:18 PM 43.5880 -73.4180 93° East 452 520 39,000  Level FlightAware ADS-B
Thu 09:55:46 PM 43.5840 -73.3390 93° East 450 518 39,000  Level FlightAware ADS-B
Thu 09:56:21 PM 43.5800 -73.2390 93° East 450 518 39,000  Level FlightAware ADS-B
Thu 09:56:52 PM 43.5750 -73.1500 93° East 450 518 39,000  Level FlightAware ADS-B
Thu 09:57:22 PM 43.5710 -73.0640 93° East 450 518 39,000  Level FlightAware ADS-B
Thu 09:57:57 PM 43.5660 -72.9640 94° East 456 525 39,000  Level FlightAware ADS-B
Thu 09:58:50 PM 43.5580 -72.8090 94° East 466 536 39,000  Level FlightAware ADS-B
Thu 10:00:03 PM 43.5470 -72.5930 94° East 466 536 39,000  Level FlightAware ADS-B
Thu 10:00:24 PM 43.5442 -72.5327 94° East 465 535 39,000  Level FlightAware ADS-B (KASH)
Thu 10:00:50 PM 43.5400 -72.4570 94° East 467 537 39,000  Level FlightAware ADS-B
Thu 10:00:54 PM 43.5393 -72.4420 94° East 466 536 39,000  Level FlightAware ADS-B (KASH)
Thu 10:01:24 PM 43.5346 -72.3557 94° East 466 536 39,000  Level FlightAware ADS-B (KASH)
Thu 10:02:09 PM 43.5271 -72.2202 94° East 468 539 39,000  Level FlightAware ADS-B (KASH)
Thu 10:02:41 PM 43.5218 -72.1263 94° East 470 541 39,000  Level FlightAware ADS-B (KASH)
Thu 10:03:11 PM 43.5169 -72.0407 95° East 472 543 39,000  Level FlightAware ADS-B
Thu 10:03:24 PM 43.5150 -71.9990 94° East 473 544 39,000  Level FlightAware ADS-B
Thu 10:03:41 PM 43.5120 -71.9567 95° East 473 544 39,000  Level FlightAware ADS-B
Thu 10:04:04 PM 43.5080 -71.8850 94° East 474 545 39,000  Level FlightAware ADS-B
Thu 10:04:12 PM 43.5063 -71.8602 95° East 475 547 39,000  Level FlightAware ADS-B
Thu 10:04:39 PM 43.5020 -71.7810 94° East 476 548 39,000  Level FlightAware ADS-B
Thu 10:04:43 PM 43.5008 -71.7685 95° East 476 548 39,000 -938 Level FlightAware ADS-B
Thu 10:05:11 PM 43.4952 -71.6773 95° East 476 548 38,500 -1,024 Descending FlightAware ADS-B
Thu 10:05:24 PM 43.4978 -71.7200 95° East 476 548 38,300 -837 Descending FlightAware ADS-B
Thu 10:05:54 PM 43.4874 -71.5492 95° East 473 544 37,900 -1,333 Descending FlightAware ADS-B
Thu 10:06:18 PM 43.4830 -71.4770 94° East 470 541 37,100 -2,250 Descending FlightAware ADS-B
Thu 10:06:26 PM 43.4814 -71.4521 94° East 469 540 36,700 -2,833 Descending FlightAware ADS-B (KASH)
Thu 10:06:54 PM 43.4762 -71.3693 94° East 471 542 35,400 -3,000 Descending FlightAware ADS-B (KASH)
Thu 10:07:26 PM 43.4701 -71.2733 94° East 476 548 33,700 -3,238 Descending FlightAware ADS-B (KASH)
Thu 10:07:57 PM 43.4641 -71.1798 94° East 479 551 32,000 -2,961 Descending FlightAware ADS-B (KASH)
Thu 10:08:43 PM 43.4539 -71.0432 95° East 462 532 29,900 -2,605 Descending FlightAware ADS-B (KASH)
Thu 10:09:13 PM 43.4487 -70.9602 95° East 453 521 28,700 -2,419 Descending FlightAware ADS-B
Thu 10:09:45 PM 43.4431 -70.8662 95° East 445 512 27,400 -2,455 Descending FlightAware ADS-B
Thu 10:09:57 PM 43.4381 -70.8314 105° East 434 499 26,900 -2,571 Descending FlightAware ADS-B (KASH)
Thu 10:10:06 PM 43.4305 -70.8081 123° Southeast 422 486 26,500 -1,778 Descending FlightAware ADS-B (KASH)
Thu 10:10:24 PM 43.4095 -70.7718 136° Southeast 422 486 26,100 -1,200 Descending FlightAware ADS-B
Thu 10:10:41 PM 43.3812 -70.7446 151° Southeast 410 472 25,800 -980 Descending FlightAware ADS-B (KASH)
Thu 10:11:13 PM 43.3268 -70.7084 154° Southeast 410 472 25,300 -1,273 Descending FlightAware ADS-B (KASH)
Thu 10:11:47 PM 43.2684 -70.6694 154° Southeast 410 472 24,400 -1,714 Descending FlightAware ADS-B
Thu 10:11:55 PM 43.2546 -70.6605 170° South 401 461 24,100 -2,077 Descending FlightAware ADS-B
Thu 10:12:13 PM 43.2234 -70.6509 175° South 397 457 23,500 -1,935 Descending FlightAware ADS-B
Thu 10:12:26 PM 43.1985 -70.6524 187° South 389 448 23,100 -2,069 Descending FlightAware ADS-B (KASH)
Thu 10:12:42 PM 43.1703 -70.6626 199° South 376 433 22,500 -2,217 Descending FlightAware ADS-B (KASH)
Thu 10:13:12 PM 43.1215 -70.6839 198° South 369 425 21,400 -2,200 Descending FlightAware ADS-B (KASH)
Thu 10:13:42 PM 43.0709 -70.7057 198° South 374 430 20,300 -2,149 Descending FlightAware ADS-B (KASH)
Thu 10:14:19 PM 43.0120 -70.7310 198° South 365 420 19,000 -2,028 Descending FlightAware ADS-B
Thu 10:14:53 PM 42.9574 -70.7545 198° South 356 410 17,900 -2,031 Descending FlightAware ADS-B
Thu 10:15:24 PM 42.9103 -70.7746 197° South 350 403 16,800 -1,967 Descending FlightAware ADS-B
Thu 10:15:54 PM 42.8674 -70.7929 197° South 341 392 15,900 -1,950 Descending FlightAware ADS-B
Thu 10:16:04 PM 42.8483 -70.8025 205° Southwest 340 391 15,500 -2,400 Descending FlightAware ADS-B
Thu 10:16:14 PM 42.8406 -70.8089 220° Southwest 342 394 15,100 -2,100 Descending FlightAware ADS-B
Thu 10:16:24 PM 42.8272 -70.8272 235° Southwest 346 398 14,800 -2,100 Descending FlightAware ADS-B
Thu 10:16:34 PM 42.8183 -70.8494 247° West 348 400 14,400 -2,143 Descending FlightAware ADS-B
Thu 10:16:52 PM 42.8074 -70.8866 249° West 346 398 13,800 -2,100 Descending FlightAware ADS-B (KASH)
Thu 10:17:14 PM 42.7947 -70.9308 249° West 345 397 13,000 -1,969 Descending FlightAware ADS-B
Thu 10:17:56 PM 42.7720 -71.0126 250° West 336 387 11,700 -1,680 Descending FlightAware ADS-B
Thu 10:18:29 PM 42.7542 -71.0784 251° West 310 357 10,900 -1,268 Descending FlightAware ADS-B (KASH)
Thu 10:19:07 PM 42.7373 -71.1414 250° West 283 326 10,200 -1,138 Descending FlightAware ADS-B
Thu 10:19:27 PM 42.7246 -71.1737 228° Southwest 268 308 9,800 -1,241 Descending FlightAware ADS-B
Thu 10:19:36 PM 42.7176 -71.1814 212° Southwest 263 303 9,600 -1,400 Descending FlightAware ADS-B
Thu 10:19:57 PM 42.6939 -71.1979 206° Southwest 260 299 9,100 -1,333 Descending FlightAware ADS-B
Thu 10:20:12 PM 42.6775 -71.2090 208° Southwest 253 291 8,800 -1,548 Descending FlightAware ADS-B (KASH)
Thu 10:20:28 PM 42.6610 -71.2202 207° Southwest 261 300 8,300 -1,742 Descending FlightAware ADS-B
Thu 10:20:43 PM 42.6436 -71.2324 208° Southwest 254 292 7,900 -1,400 Descending FlightAware ADS-B (KASH)
Thu 10:20:58 PM 42.6278 -71.2431 208° Southwest 252 290 7,600 -1,200 Descending FlightAware ADS-B (KASH)
Thu 10:21:13 PM 42.6115 -71.2542 206° Southwest 253 291 7,300 -1,200 Descending FlightAware ADS-B (KASH)
Thu 10:21:28 PM 42.5972 -71.2637 206° Southwest 250 288 7,000 -1,200 Descending FlightAware ADS-B
Thu 10:21:43 PM 42.5813 -71.2742 206° Southwest 246 283 6,700 -1,200 Descending FlightAware ADS-B
Thu 10:21:58 PM 42.5655 -71.2849 207° Southwest 239 275 6,400 -1,034 Descending FlightAware ADS-B (KASH)
Thu 10:22:12 PM 42.5510 -71.2919 191° South 229 264 6,200 -632 Descending FlightAware ADS-B (KASH)
Thu 10:22:17 PM 42.5514 -71.2918 182° South 226 260 6,200 -600 Level FlightAware ADS-B
Thu 10:22:22 PM 42.5420 -71.2916 173° South 226 260 6,100 -1,091 Descending FlightAware ADS-B
Thu 10:22:28 PM 42.5358 -71.2893 162° South 224 258 6,000 -1,200 Descending FlightAware ADS-B
Thu 10:22:37 PM 42.5298 -71.2849 145° Southeast 227 261 5,800 -1,200 Descending FlightAware ADS-B
Thu 10:22:48 PM 42.5205 -71.2716 123° Southeast 234 269 5,600 -1,143 Descending FlightAware ADS-B
Thu 10:22:58 PM 42.5162 -71.2561 106° East 237 273 5,400 -1,500 Descending FlightAware ADS-B (KASH)
Thu 10:23:08 PM 42.5156 -71.2432 86° East 249 287 5,100 -1,846 Descending FlightAware ADS-B
Thu 10:23:11 PM 42.5164 -71.2359 78° East 252 290 5,000 -1,200 Descending FlightAware ADS-B (KASH)
Thu 10:23:18 PM 42.5189 -71.2257 69° East 257 296 4,900 -1,333 Descending FlightAware ADS-B
Thu 10:23:38 PM 42.5304 -71.1972 60° Northeast 263 303 4,400 -1,171 Descending FlightAware ADS-B
Thu 10:23:59 PM 42.5432 -71.1664 63° Northeast 257 296 4,100 -750 Descending FlightAware ADS-B (KASH)
Thu 10:24:18 PM 42.5533 -71.1416 61° Northeast 253 291 3,900 -828 Descending FlightAware ADS-B
Thu 10:24:28 PM 42.5596 -71.1263 62° Northeast 244 281 3,700 -444 Descending FlightAware ADS-B (KASH)
Thu 10:24:45 PM 42.5688 -71.1042 60° Northeast 233 268 3,700  Level FlightAware ADS-B (KASH)
Thu 10:25:10 PM 42.5816 -71.0740 60° Northeast 226 260 3,700  Level FlightAware ADS-B
Thu 10:25:29 PM 42.5901 -71.0540 61° Northeast 225 259 3,700  Level FlightAware ADS-B
Thu 10:25:39 PM 42.5955 -71.0383 73° East 221 254 3,700  Level FlightAware ADS-B
Thu 10:25:44 PM 42.5963 -71.0299 89° East 214 246 3,700  Level FlightAware ADS-B (KASH)
Thu 10:26:11 PM 42.5936 -70.9961 97° East 212 244 3,700 -133 Level FlightAware ADS-B
Thu 10:26:29 PM 42.5914 -70.9722 97° East 204 235 3,600 -462 Descending FlightAware ADS-B
Thu 10:26:37 PM 42.5906 -70.9619 95° East 205 236 3,500 -1,000 Descending FlightAware ADS-B (KASH)
Thu 10:27:11 PM 42.5856 -70.9197 114° Southeast 193 222 2,900 -933 Descending FlightAware ADS-B
Thu 10:27:22 PM 42.5798 -70.9109 142° Southeast 177 204 2,800 -667 Descending FlightAware ADS-B
Thu 10:27:29 PM 42.5826 -70.9141 168° South 164 189 2,700 -600 Descending FlightAware ADS-B
Thu 10:27:32 PM 42.5720 -70.9083 179° South 160 184 2,700  Level FlightAware ADS-B
Thu 10:27:42 PM 42.5650 -70.9101 193° South 154 177 2,700  Level FlightAware ADS-B
Thu 10:28:14 PM 42.5435 -70.9182 201° Southwest 140 161 2,700  Level FlightAware ADS-B (KASH)
Thu 10:28:28 PM 42.5343 -70.9227 201° Southwest 140 161 2,700  Level FlightAware ADS-B (KASH)
Thu 10:28:47 PM 42.5235 -70.9281 201° Southwest 143 165 2,700 -154 Level FlightAware ADS-B
Thu 10:29:07 PM 42.5107 -70.9344 200° South 138 159 2,600 -585 Descending FlightAware ADS-B (KASH)
Thu 10:29:28 PM 42.4983 -70.9404 200° South 135 155 2,300 -811 Descending FlightAware ADS-B
Thu 10:29:44 PM 42.4887 -70.9452 201° Southwest 127 146 2,100 -706 Descending FlightAware ADS-B (KASH)
Thu 10:30:02 PM 42.4790 -70.9498 200° South 134 154 1,900 -632 Descending FlightAware ADS-B
Thu 10:30:22 PM 42.4664 -70.9561 201° Southwest 136 157 1,700 -750 Descending FlightAware ADS-B
Thu 10:30:42 PM 42.4554 -70.9614 199° South 139 160 1,400 -732 Descending FlightAware ADS-B
Thu 10:31:03 PM 42.4431 -70.9674 200° South 132 152 1,200 -732 Descending FlightAware ADS-B
Thu 10:31:23 PM 42.4314 -70.9730 200° South 128 147 900 -750 Descending FlightAware ADS-B
Thu 10:31:43 PM 42.4197 -70.9786 200° South 131 151 700 -600 Descending FlightAware ADS-B
Thu 10:32:03 PM 42.4080 -70.9843 200° South 132 152 500 -732 Descending FlightAware ADS-B
Thu 10:32:24 PM 42.3963 -70.9900 200° South 134 154 200  Descending FlightAware ADS-B
Thu 10:33:07 PM 42.3797 -70.9961 200° South 132 152 500 419 Climbing Boston Center

Login

Don't have an account? Register now (free) for customized features, flight alerts, and more!